createdAt,value
2019-05-30T00:00:51.587Z,4.53
2019-05-30T00:03:19.331Z,5.20
2019-05-30T00:05:48.185Z,4.67
2019-05-30T00:08:15.944Z,4.60
2019-05-30T00:10:43.721Z,4.90
2019-05-30T00:13:11.534Z,5.70
2019-05-30T00:15:40.937Z,7.00
2019-05-30T00:18:08.679Z,4.97
2019-05-30T00:20:38.268Z,5.60
2019-05-30T00:23:07.204Z,4.77
2019-05-30T00:25:34.973Z,5.97
2019-05-30T00:28:05.172Z,5.23
2019-05-30T00:30:32.689Z,5.07
2019-05-30T00:33:00.763Z,6.03
2019-05-30T00:35:28.608Z,5.80
2019-05-30T00:37:57.649Z,7.20
2019-05-30T00:40:26.705Z,10.93
2019-05-30T00:42:55.811Z,5.60
2019-05-30T00:45:23.740Z,7.27
2019-05-30T00:47:51.485Z,6.90
2019-05-30T00:50:20.364Z,6.20
2019-05-30T00:52:49.820Z,6.43
2019-05-30T00:55:17.588Z,6.27
2019-05-30T00:57:46.544Z,5.73
2019-05-30T01:00:14.857Z,6.33
2019-05-30T01:02:42.636Z,6.10
2019-05-30T01:05:10.456Z,6.30
2019-05-30T01:07:38.215Z,6.43
2019-05-30T01:10:07.598Z,6.20
2019-05-30T01:12:35.562Z,6.40
2019-05-30T01:15:05.103Z,5.57
2019-05-30T01:17:33.104Z,6.67
2019-05-30T01:20:01.165Z,6.70
2019-05-30T01:22:29.118Z,6.90
2019-05-30T01:24:57.148Z,6.87
2019-05-30T01:27:24.965Z,7.50
2019-05-30T01:29:52.702Z,7.13
2019-05-30T01:32:29.549Z,9.43
2019-05-30T01:34:59.598Z,6.93
2019-05-30T01:37:27.770Z,7.60
2019-05-30T01:39:55.874Z,7.23
2019-05-30T01:42:23.647Z,10.30
2019-05-30T01:44:51.385Z,7.33
2019-05-30T01:47:19.165Z,7.97
2019-05-30T01:49:46.912Z,8.33
2019-05-30T01:52:14.668Z,8.10
2019-05-30T01:54:42.426Z,10.57
2019-05-30T01:57:10.231Z,8.63
2019-05-30T01:59:38.004Z,7.87
2019-05-30T02:02:07.076Z,8.43
2019-05-30T02:04:35.157Z,8.53
2019-05-30T02:07:03.375Z,8.57
2019-05-30T02:09:31.221Z,9.57
2019-05-30T02:11:59.325Z,7.43
2019-05-30T02:14:27.119Z,8.23
2019-05-30T02:16:54.856Z,7.93
2019-05-30T02:19:22.617Z,12.63
2019-05-30T02:21:50.400Z,8.27
2019-05-30T02:24:18.171Z,8.53
2019-05-30T02:26:45.907Z,8.03
2019-05-30T02:29:13.714Z,7.13
2019-05-30T02:31:41.456Z,8.27
2019-05-30T02:34:11.392Z,8.60
2019-05-30T02:36:38.922Z,7.67
2019-05-30T02:39:09.635Z,7.03
2019-05-30T02:41:37.048Z,7.50
2019-05-30T02:44:05.481Z,7.50
2019-05-30T02:46:33.809Z,7.60
2019-05-30T02:49:03.908Z,7.67
2019-05-30T02:51:31.235Z,6.90
2019-05-30T02:53:59.000Z,6.43
2019-05-30T02:56:26.724Z,6.30
2019-05-30T02:58:54.466Z,5.67
2019-05-30T03:01:22.179Z,6.40
2019-05-30T03:03:49.952Z,6.97
2019-05-30T03:06:17.679Z,6.73
2019-05-30T03:08:45.760Z,6.93
2019-05-30T03:11:15.438Z,6.40
2019-05-30T03:13:43.205Z,10.63
2019-05-30T03:16:11.887Z,8.40
2019-05-30T03:18:40.696Z,7.40
2019-05-30T03:21:10.572Z,5.60
2019-05-30T03:23:38.162Z,7.43
2019-05-30T03:26:09.157Z,7.70
2019-05-30T03:28:35.666Z,8.20
2019-05-30T03:31:10.434Z,7.30
2019-05-30T03:33:41.011Z,7.50
2019-05-30T03:36:10.880Z,7.70
2019-05-30T03:38:34.802Z,7.47
2019-05-30T03:41:04.587Z,9.40
2019-05-30T03:43:32.252Z,7.50
2019-05-30T03:46:01.552Z,7.10
2019-05-30T03:48:30.469Z,7.37
2019-05-30T03:50:59.928Z,7.70
2019-05-30T03:53:27.885Z,8.80
2019-05-30T03:56:04.612Z,7.37
2019-05-30T03:58:49.686Z,7.77
2019-05-30T04:01:25.600Z,7.30
2019-05-30T04:04:13.788Z,6.70
2019-05-30T04:06:46.113Z,7.60
2019-05-30T04:09:22.363Z,7.60
2019-05-30T04:12:03.534Z,8.40
2019-05-30T04:14:36.421Z,9.57
2019-05-30T04:17:04.204Z,9.50
2019-05-30T04:19:31.929Z,7.37
2019-05-30T04:21:59.649Z,7.63
2019-05-30T04:24:27.573Z,6.40
2019-05-30T04:26:55.401Z,7.07
2019-05-30T04:29:23.641Z,8.93
2019-05-30T04:31:51.390Z,7.30
2019-05-30T04:34:19.629Z,6.90
2019-05-30T04:36:47.509Z,9.73
2019-05-30T04:39:17.074Z,6.40
2019-05-30T04:41:45.187Z,6.43
2019-05-30T04:44:14.492Z,6.90
2019-05-30T04:46:42.613Z,7.60
2019-05-30T04:49:12.195Z,5.97
2019-05-30T04:51:40.066Z,8.47
2019-05-30T04:54:07.890Z,6.20
2019-05-30T04:56:35.640Z,5.83
2019-05-30T04:59:03.374Z,5.90
2019-05-30T05:01:31.548Z,6.60
2019-05-30T05:03:59.316Z,6.67
2019-05-30T05:06:27.071Z,6.63
2019-05-30T05:08:54.803Z,6.50
2019-05-30T05:11:25.068Z,10.93
2019-05-30T05:13:52.276Z,6.13
2019-05-30T05:16:33.639Z,5.80
2019-05-30T05:18:49.689Z,7.07
2019-05-30T05:21:17.429Z,5.87
2019-05-30T05:23:45.182Z,6.57
2019-05-30T05:26:13.405Z,8.03
2019-05-30T05:28:41.287Z,6.07
2019-05-30T05:31:09.263Z,6.23
2019-05-30T05:33:37.000Z,6.60
2019-05-30T05:36:04.821Z,5.10
2019-05-30T05:38:32.548Z,6.10
2019-05-30T05:41:00.340Z,5.60
2019-05-30T05:43:28.700Z,6.47
2019-05-30T05:45:56.544Z,5.93
2019-05-30T05:48:24.720Z,5.13
2019-05-30T05:50:52.642Z,5.90
2019-05-30T05:53:20.864Z,5.40
2019-05-30T05:55:48.791Z,5.40
2019-05-30T05:58:16.786Z,6.20
2019-05-30T06:00:44.706Z,5.60
2019-05-30T06:03:12.620Z,6.67
2019-05-30T06:05:52.678Z,6.27
2019-05-30T06:08:10.124Z,6.97
2019-05-30T06:10:37.908Z,8.40
2019-05-30T06:13:05.709Z,8.73
2019-05-30T06:15:33.488Z,8.00
2019-05-30T06:18:01.230Z,7.47
2019-05-30T06:20:28.969Z,8.10
2019-05-30T06:22:56.737Z,8.77
2019-05-30T06:25:27.709Z,8.50
2019-05-30T06:27:54.740Z,7.70
2019-05-30T06:30:22.855Z,8.63
2019-05-30T06:32:50.640Z,8.80
2019-05-30T06:35:18.752Z,8.70
2019-05-30T06:37:46.664Z,6.90
2019-05-30T06:40:15.572Z,6.53
2019-05-30T06:42:43.318Z,6.80
2019-05-30T06:45:11.535Z,6.17
2019-05-30T06:47:39.309Z,6.37
2019-05-30T06:50:07.889Z,6.67
2019-05-30T06:52:35.642Z,10.90
2019-05-30T06:55:03.805Z,5.80
2019-05-30T06:57:31.592Z,7.13
2019-05-30T06:59:59.351Z,7.67
2019-05-30T07:02:28.349Z,6.00
2019-05-30T07:04:57.066Z,7.60
2019-05-30T07:07:25.479Z,5.50
2019-05-30T07:09:54.477Z,6.70
2019-05-30T07:12:22.900Z,5.17
2019-05-30T07:14:50.796Z,4.93
2019-05-30T07:17:18.664Z,4.67
2019-05-30T07:19:46.429Z,6.50
2019-05-30T07:22:14.418Z,6.63
2019-05-30T07:24:42.447Z,5.80
2019-05-30T07:27:10.324Z,5.60
2019-05-30T07:29:38.046Z,5.33
2019-05-30T07:32:05.823Z,6.13
2019-05-30T07:34:34.285Z,6.60
2019-05-30T07:37:02.091Z,4.93
2019-05-30T07:39:33.275Z,4.73
2019-05-30T07:42:06.377Z,5.10
2019-05-30T07:44:30.792Z,6.23
2019-05-30T07:46:58.729Z,4.57
2019-05-30T07:49:26.491Z,5.03
2019-05-30T07:51:54.272Z,4.67
2019-05-30T07:54:22.044Z,5.20
2019-05-30T07:56:49.791Z,4.90
2019-05-30T07:59:17.537Z,4.70
2019-05-30T08:01:45.305Z,5.40
2019-05-30T08:04:13.108Z,4.13
2019-05-30T08:06:40.868Z,7.20
2019-05-30T08:09:08.626Z,4.50
2019-05-30T08:11:36.374Z,5.43
2019-05-30T08:14:04.159Z,4.30
2019-05-30T08:16:31.952Z,4.00
2019-05-30T08:18:59.702Z,4.57
2019-05-30T08:21:27.802Z,4.90
2019-05-30T08:23:55.799Z,4.40
2019-05-30T08:26:23.571Z,4.00
2019-05-30T08:28:51.386Z,6.43
2019-05-30T08:31:19.146Z,5.50
2019-05-30T08:33:47.530Z,4.47
2019-05-30T08:36:15.572Z,4.30
2019-05-30T08:38:43.449Z,5.47
2019-05-30T08:41:11.202Z,6.47
2019-05-30T08:43:39.681Z,4.80
2019-05-30T08:46:07.721Z,6.20
2019-05-30T08:48:36.223Z,4.70
2019-05-30T08:51:04.273Z,4.27
2019-05-30T08:53:32.694Z,5.13
2019-05-30T08:56:00.568Z,7.60
2019-05-30T08:58:28.452Z,5.00
2019-05-30T09:00:56.338Z,6.53
2019-05-30T09:03:24.098Z,4.77
2019-05-30T09:06:02.642Z,4.20
2019-05-30T09:08:21.536Z,8.50
2019-05-30T09:10:50.134Z,4.00
2019-05-30T09:13:18.097Z,5.73
2019-05-30T09:15:47.009Z,4.23
2019-05-30T09:18:14.973Z,3.97
2019-05-30T09:20:43.749Z,3.80
2019-05-30T09:23:11.735Z,4.07
2019-05-30T09:25:40.021Z,5.83
2019-05-30T09:28:08.015Z,4.77
2019-05-30T09:30:35.993Z,4.40
2019-05-30T09:33:03.930Z,3.70
2019-05-30T09:35:31.757Z,5.20
2019-05-30T09:37:59.531Z,4.50
2019-05-30T09:40:27.610Z,3.57
2019-05-30T09:42:55.400Z,3.30
2019-05-30T09:45:23.893Z,5.07
2019-05-30T09:47:51.880Z,5.07
2019-05-30T09:50:20.134Z,4.70
2019-05-30T09:52:49.180Z,4.10
2019-05-30T09:55:17.898Z,5.13
2019-05-30T09:57:45.905Z,4.10
2019-05-30T10:00:16.029Z,4.20
2019-05-30T10:02:44.853Z,4.73
2019-05-30T10:05:15.903Z,4.53
2019-05-30T10:07:45.436Z,4.07
2019-05-30T10:10:14.128Z,5.83
2019-05-30T10:12:42.033Z,5.67
2019-05-30T10:15:11.440Z,3.90
2019-05-30T10:17:39.489Z,3.70
2019-05-30T10:20:08.823Z,4.50
2019-05-30T10:22:36.730Z,4.50
2019-05-30T10:25:05.215Z,4.40
2019-05-30T10:27:33.748Z,4.43
2019-05-30T10:30:04.434Z,3.90
2019-05-30T10:32:32.229Z,3.43
2019-05-30T10:34:59.998Z,3.90
2019-05-30T10:37:27.762Z,3.80
2019-05-30T10:39:58.363Z,2.90
2019-05-30T10:42:25.374Z,4.70
2019-05-30T10:44:54.571Z,4.40
2019-05-30T10:47:22.702Z,4.67
2019-05-30T10:49:51.480Z,4.10
2019-05-30T10:52:19.516Z,8.40
2019-05-30T10:54:49.379Z,4.63
2019-05-30T10:57:17.600Z,4.07
2019-05-30T10:59:46.147Z,6.93
2019-05-30T11:02:15.178Z,6.53
2019-05-30T11:04:43.014Z,4.80
2019-05-30T11:08:03.891Z,4.43
2019-05-30T11:10:38.813Z,4.67
2019-05-30T11:13:09.089Z,5.30
2019-05-30T11:15:37.224Z,4.90
2019-05-30T11:18:05.125Z,5.37
2019-05-30T11:20:32.952Z,5.67
2019-05-30T11:23:00.681Z,4.33
2019-05-30T11:25:28.484Z,3.20
2019-05-30T11:27:56.871Z,3.10
2019-05-30T11:30:25.038Z,5.43
2019-05-30T11:32:55.207Z,3.97
2019-05-30T11:35:23.344Z,3.37
2019-05-30T11:37:53.097Z,4.07
2019-05-30T11:40:21.424Z,4.93
2019-05-30T11:42:49.358Z,4.13
2019-05-30T11:45:17.680Z,3.43
2019-05-30T11:47:45.538Z,3.90
2019-05-30T11:50:14.058Z,2.83
2019-05-30T11:52:42.144Z,4.17
2019-05-30T11:55:11.379Z,3.13
2019-05-30T11:57:40.419Z,3.40
2019-05-30T12:00:09.910Z,1.80
2019-05-30T12:02:37.840Z,1.90
2019-05-30T12:05:06.541Z,2.40
2019-05-30T12:07:36.696Z,1.70
2019-05-30T12:10:06.112Z,1.83
2019-05-30T12:12:34.094Z,1.83
2019-05-30T12:15:02.275Z,1.40
2019-05-30T12:17:31.296Z,1.17
2019-05-30T12:19:59.587Z,2.53
2019-05-30T12:22:27.473Z,2.07
2019-05-30T12:24:55.870Z,2.43
2019-05-30T12:27:24.839Z,2.30
2019-05-30T12:29:52.984Z,2.30
2019-05-30T12:32:21.859Z,2.23
2019-05-30T12:34:49.880Z,3.20
2019-05-30T12:37:17.708Z,1.60
2019-05-30T12:39:45.460Z,2.07
2019-05-30T12:42:15.135Z,2.40
2019-05-30T12:44:42.950Z,1.80
2019-05-30T12:47:12.579Z,2.20
2019-05-30T12:49:40.401Z,2.63
2019-05-30T12:52:08.203Z,1.80
2019-05-30T12:54:37.911Z,2.57
2019-05-30T12:57:06.896Z,2.40
2019-05-30T12:59:35.072Z,1.80
2019-05-30T13:02:03.127Z,1.93
2019-05-30T13:04:31.165Z,1.60
2019-05-30T13:06:59.390Z,3.43
2019-05-30T13:09:27.309Z,1.90
2019-05-30T13:11:56.307Z,1.33
2019-05-30T13:14:24.322Z,1.60
2019-05-30T13:16:52.170Z,3.10
2019-05-30T13:19:20.011Z,2.23
2019-05-30T13:21:47.784Z,2.10
2019-05-30T13:24:15.574Z,2.27
2019-05-30T13:26:43.420Z,2.80
2019-05-30T13:29:13.009Z,1.23
2019-05-30T13:31:40.788Z,3.73
2019-05-30T13:34:08.574Z,2.53
2019-05-30T13:36:36.370Z,2.40
2019-05-30T13:39:07.462Z,2.83
2019-05-30T13:41:35.447Z,3.60
2019-05-30T13:44:06.243Z,1.23
2019-05-30T13:46:32.965Z,3.60
2019-05-30T13:49:00.891Z,3.20
2019-05-30T13:51:28.983Z,1.30
2019-05-30T13:53:56.939Z,4.07
2019-05-30T13:56:24.727Z,2.20
2019-05-30T13:58:52.548Z,3.20
2019-05-30T14:01:20.925Z,2.53
2019-05-30T14:03:48.949Z,2.20
2019-05-30T14:06:16.740Z,2.93
2019-05-30T14:08:44.504Z,1.70
2019-05-30T14:11:12.323Z,2.67
2019-05-30T14:13:40.107Z,2.97
2019-05-30T14:16:08.844Z,2.30
2019-05-30T14:18:36.919Z,3.33
2019-05-30T14:21:05.202Z,1.90
2019-05-30T14:23:33.006Z,3.03
2019-05-30T14:26:01.229Z,3.57
2019-05-30T14:28:29.346Z,2.40
2019-05-30T14:30:57.341Z,2.27
2019-05-30T14:33:26.974Z,3.80
2019-05-30T14:35:54.754Z,2.50
2019-05-30T14:38:22.502Z,2.33
2019-05-30T14:40:50.372Z,2.77
2019-05-30T14:43:19.943Z,2.53
2019-05-30T14:45:47.783Z,2.60
2019-05-30T14:48:16.882Z,5.87
2019-05-30T14:50:44.879Z,2.50
2019-05-30T14:53:14.022Z,2.30
2019-05-30T14:55:41.798Z,5.07
2019-05-30T14:58:09.636Z,1.90
2019-05-30T15:00:37.580Z,2.07
2019-05-30T15:03:09.156Z,1.83
2019-05-30T15:05:35.413Z,3.83
2019-05-30T15:08:04.551Z,3.10
2019-05-30T15:10:32.578Z,2.30
2019-05-30T15:13:01.402Z,2.93
2019-05-30T15:15:29.381Z,1.90
2019-05-30T15:17:57.135Z,2.50
2019-05-30T15:20:24.857Z,1.90
2019-05-30T15:22:52.601Z,3.10
2019-05-30T15:25:20.370Z,3.40
2019-05-30T15:27:48.125Z,3.83
2019-05-30T15:30:16.833Z,3.53
2019-05-30T15:32:44.888Z,4.20
2019-05-30T15:35:15.212Z,2.33
2019-05-30T15:37:43.260Z,2.20
2019-05-30T15:40:13.200Z,5.00
2019-05-30T15:42:40.985Z,4.33
2019-05-30T15:45:10.107Z,3.80
2019-05-30T15:47:37.981Z,4.93
2019-05-30T15:50:06.357Z,2.60
2019-05-30T15:52:34.106Z,5.03
2019-05-30T15:55:01.879Z,2.73
2019-05-30T15:57:29.697Z,2.83
2019-05-30T15:59:57.466Z,3.17
2019-05-30T16:02:25.752Z,2.30
2019-05-30T16:04:53.513Z,2.50
2019-05-30T16:07:21.283Z,3.57
2019-05-30T16:09:49.040Z,4.00
2019-05-30T16:12:17.165Z,4.97
2019-05-30T16:14:44.994Z,2.77
2019-05-30T16:17:13.827Z,2.40
2019-05-30T16:19:41.730Z,3.73
2019-05-30T16:22:09.476Z,3.93
2019-05-30T16:24:37.236Z,2.80
2019-05-30T16:27:05.041Z,2.80
2019-05-30T16:29:32.865Z,3.97
2019-05-30T16:32:00.598Z,3.57
2019-05-30T16:34:28.352Z,2.40
2019-05-30T16:36:56.211Z,2.33
2019-05-30T16:39:23.951Z,5.10
2019-05-30T16:41:51.746Z,1.80
2019-05-30T16:44:20.427Z,2.33
2019-05-30T16:46:48.581Z,2.63
2019-05-30T16:49:16.466Z,4.40
2019-05-30T16:51:44.281Z,4.00
2019-05-30T16:54:12.107Z,7.73
2019-05-30T16:56:39.879Z,3.37
2019-05-30T16:59:07.664Z,2.30
2019-05-30T17:01:35.534Z,2.17
2019-05-30T17:04:03.353Z,3.37
2019-05-30T17:06:31.103Z,5.70
2019-05-30T17:08:58.851Z,3.30
2019-05-30T17:11:26.625Z,3.27
2019-05-30T17:13:54.681Z,3.13
2019-05-30T17:16:22.433Z,2.83
2019-05-30T17:18:50.168Z,3.47
2019-05-30T17:21:18.340Z,3.07
2019-05-30T17:23:46.375Z,4.17
2019-05-30T17:26:14.164Z,2.77
2019-05-30T17:28:41.915Z,2.70
2019-05-30T17:31:09.691Z,2.77
2019-05-30T17:33:37.457Z,2.20
2019-05-30T17:36:05.324Z,2.50
2019-05-30T17:38:33.133Z,3.43
2019-05-30T17:41:00.939Z,2.87
2019-05-30T17:43:29.299Z,4.43
2019-05-30T17:45:57.345Z,7.90
2019-05-30T17:48:25.690Z,2.87
2019-05-30T17:50:53.569Z,2.63
2019-05-30T17:53:21.702Z,2.47
2019-05-30T17:55:49.609Z,2.57
2019-05-30T17:58:17.343Z,2.80
2019-05-30T18:00:45.129Z,3.70
2019-05-30T18:03:12.875Z,5.60
2019-05-30T18:05:40.635Z,2.83
2019-05-30T18:08:08.418Z,5.23
2019-05-30T18:10:36.220Z,3.00
2019-05-30T18:13:04.293Z,3.60
2019-05-30T18:15:32.509Z,3.40
2019-05-30T18:18:00.480Z,2.30
2019-05-30T18:20:29.336Z,3.77
2019-05-30T18:22:57.254Z,2.83
2019-05-30T18:25:25.629Z,2.23
2019-05-30T18:27:53.625Z,3.40
2019-05-30T18:30:37.177Z,3.13
2019-05-30T18:33:04.973Z,4.20
2019-05-30T18:35:32.707Z,3.00
2019-05-30T18:38:01.988Z,3.53
2019-05-30T18:40:33.104Z,3.83
2019-05-30T18:43:01.210Z,2.60
2019-05-30T18:45:38.918Z,6.20
2019-05-30T18:48:07.470Z,1.90
2019-05-30T18:50:35.727Z,3.93
2019-05-30T18:53:04.110Z,4.10
2019-05-30T18:55:32.645Z,3.43
2019-05-30T18:58:00.561Z,9.93
2019-05-30T19:00:29.138Z,3.13
2019-05-30T19:02:57.438Z,2.80
2019-05-30T19:05:26.489Z,3.20
2019-05-30T19:07:54.501Z,2.70
2019-05-30T19:10:22.264Z,3.90
2019-05-30T19:12:50.146Z,3.73
2019-05-30T19:15:18.586Z,1.60
2019-05-30T19:17:46.404Z,2.70
2019-05-30T19:20:15.038Z,3.70
2019-05-30T19:22:42.848Z,2.60
2019-05-30T19:25:11.081Z,3.00
2019-05-30T19:27:38.886Z,2.97
2019-05-30T19:30:08.004Z,3.50
2019-05-30T19:32:36.947Z,4.57
2019-05-30T19:35:06.061Z,2.57
2019-05-30T19:37:35.250Z,2.30
2019-05-30T19:40:05.775Z,2.80
2019-05-30T19:42:33.716Z,3.37
2019-05-30T19:45:05.311Z,2.43
2019-05-30T19:47:34.578Z,3.20
2019-05-30T19:50:03.347Z,3.77
2019-05-30T19:52:32.622Z,3.20
2019-05-30T19:55:00.690Z,4.07
2019-05-30T19:57:29.373Z,3.70
2019-05-30T19:59:57.596Z,5.43
2019-05-30T20:02:25.457Z,5.27
2019-05-30T20:04:53.381Z,4.47
2019-05-30T20:07:21.333Z,4.20
2019-05-30T20:10:00.776Z,3.83
2019-05-30T20:12:19.669Z,3.73
2019-05-30T20:14:47.438Z,3.13
2019-05-30T20:17:15.252Z,2.87
2019-05-30T20:19:43.104Z,7.23
2019-05-30T20:22:11.006Z,3.90
2019-05-30T20:24:39.207Z,3.93
2019-05-30T20:27:07.020Z,3.43
2019-05-30T20:29:35.033Z,7.20
2019-05-30T20:32:02.963Z,3.77
2019-05-30T20:34:30.751Z,3.10
2019-05-30T20:36:58.971Z,4.27
2019-05-30T20:39:27.191Z,6.20
2019-05-30T20:41:55.621Z,2.70
2019-05-30T20:44:24.037Z,2.60
2019-05-30T20:46:52.174Z,4.10
2019-05-30T20:49:20.456Z,4.30
2019-05-30T20:51:48.178Z,3.50
2019-05-30T20:54:16.470Z,2.73
2019-05-30T20:56:48.622Z,3.33
2019-05-30T20:59:14.255Z,2.33
2019-05-30T21:01:45.945Z,4.70
2019-05-30T21:04:14.422Z,3.53
2019-05-30T21:06:43.150Z,5.30
2019-05-30T21:09:27.714Z,3.53
2019-05-30T21:11:44.646Z,2.70
2019-05-30T21:14:13.212Z,3.53
2019-05-30T21:16:44.249Z,2.70
2019-05-30T21:19:12.664Z,2.77
2019-05-30T21:21:41.136Z,2.70
2019-05-30T21:24:10.589Z,2.53
2019-05-30T21:26:38.634Z,5.00
2019-05-30T21:29:06.589Z,2.50
2019-05-30T21:31:34.798Z,2.40
2019-05-30T21:34:02.632Z,4.60
2019-05-30T21:36:30.379Z,3.07
2019-05-30T21:38:58.160Z,3.03
2019-05-30T21:41:25.945Z,3.03
2019-05-30T21:43:53.701Z,3.23
2019-05-30T21:46:21.490Z,3.77
2019-05-30T21:48:49.248Z,2.60
2019-05-30T21:51:16.993Z,2.73
2019-05-30T21:53:45.633Z,3.13
2019-05-30T21:56:13.577Z,2.50
2019-05-30T21:58:42.127Z,2.50
2019-05-30T22:01:33.261Z,4.50
2019-05-30T22:04:01.662Z,5.17
2019-05-30T22:06:30.036Z,3.83
2019-05-30T22:08:58.075Z,2.40
2019-05-30T22:11:26.009Z,2.73
2019-05-30T22:13:53.812Z,2.90
2019-05-30T22:16:21.589Z,2.80
2019-05-30T22:18:50.088Z,2.57
2019-05-30T22:21:17.993Z,2.03
2019-05-30T22:23:46.263Z,3.03
2019-05-30T22:26:14.121Z,2.37
2019-05-30T22:28:42.310Z,2.50
2019-05-30T22:31:10.233Z,2.40
2019-05-30T22:33:37.956Z,4.50
2019-05-30T22:36:05.696Z,2.97
2019-05-30T22:38:33.502Z,4.00
2019-05-30T22:41:01.280Z,3.40
2019-05-30T22:43:29.152Z,3.03
2019-05-30T22:45:56.961Z,3.33
2019-05-30T22:48:24.780Z,3.20
2019-05-30T22:50:52.908Z,2.70
2019-05-30T22:53:20.758Z,2.70
2019-05-30T22:55:49.159Z,3.13
2019-05-30T22:58:17.054Z,2.43
2019-05-30T23:00:45.991Z,3.80
2019-05-30T23:03:13.992Z,3.30
2019-05-30T23:05:41.743Z,2.83
2019-05-30T23:08:09.688Z,3.00
2019-05-30T23:10:37.419Z,2.97
2019-05-30T23:13:05.192Z,2.93
2019-05-30T23:15:32.943Z,2.67
2019-05-30T23:18:00.716Z,2.30
2019-05-30T23:20:28.505Z,2.43
2019-05-30T23:22:57.148Z,2.70
2019-05-30T23:25:24.962Z,2.53
2019-05-30T23:27:53.613Z,2.10
2019-05-30T23:30:22.600Z,2.40
2019-05-30T23:32:50.531Z,2.73
2019-05-30T23:35:18.370Z,4.23
2019-05-30T23:37:46.270Z,2.27
2019-05-30T23:40:14.957Z,2.30
2019-05-30T23:42:42.766Z,2.83
2019-05-30T23:45:10.713Z,3.03
2019-05-30T23:47:38.506Z,3.00
2019-05-30T23:50:06.991Z,3.17
2019-05-30T23:52:34.801Z,3.60
2019-05-30T23:55:02.769Z,3.17
2019-05-30T23:57:30.565Z,2.50
2019-05-30T23:59:59.098Z,2.87
